Time;durP1;ratioP1;P1;durP2;ratioP2;P2;SDS_P1;SDS_P2;PMS_P1;PMS_P2;Temp;Humidity;BMP_temperature;BMP_pressure;BME280_temperature;BME280_humidity;BME280_pressure;Samples;Min_cycle;Max_cycle;Signal;HPM_P1;HPM_P2
2022/10/16 00:01:59;;;;;;;7.10;6.10;;;;;;;17.91;100.00;99866.91;5056267;28;20107;-66
2022/10/16 00:04:26;;;;;;;10.40;5.20;;;;;;;17.98;100.00;99876.31;5088942;28;20020;-66
2022/10/16 00:06:51;;;;;;;8.55;2.97;;;;;;;17.98;100.00;99887.09;5094727;28;20056;-65
2022/10/16 00:09:17;;;;;;;5.70;3.55;;;;;;;17.99;100.00;99880.72;5094667;28;20031;-66
2022/10/16 00:11:42;;;;;;;5.05;2.72;;;;;;;18.00;100.00;99879.78;5094690;28;20020;-65
2022/10/16 00:14:11;;;;;;;6.30;2.22;;;;;;;17.99;100.00;99880.72;5094734;28;20055;-65
2022/10/16 00:16:37;;;;;;;4.30;3.40;;;;;;;18.00;100.00;99881.59;5094728;28;20067;-65
2022/10/16 00:19:03;;;;;;;4.25;3.65;;;;;;;18.00;100.00;99882.47;5091251;28;20119;-65
2022/10/16 00:21:30;;;;;;;26.42;4.55;;;;;;;18.01;100.00;99876.13;5073877;28;20063;-65
2022/10/16 00:24:02;;;;;;;8.18;3.80;;;;;;;18.02;100.00;99879.69;5074164;28;20028;-65
2022/10/16 00:26:29;;;;;;;10.98;9.75;;;;;;;18.01;100.00;99876.13;5073980;28;20055;-66
2022/10/16 00:28:58;;;;;;;8.48;5.00;;;;;;;18.01;100.00;99859.97;5074074;28;20021;-66
2022/10/16 00:31:24;;;;;;;5.70;3.58;;;;;;;18.01;100.00;99865.34;5073978;28;20025;-65
2022/10/16 00:33:50;;;;;;;5.50;4.18;;;;;;;18.02;100.00;99866.22;5056009;28;20031;-66
2022/10/16 00:36:18;;;;;;;6.00;3.72;;;;;;;18.02;100.00;99883.22;5073770;28;20029;-66
2022/10/16 00:38:43;;;;;;;4.78;3.25;;;;;;;18.04;100.00;99886.66;5073973;28;20056;-65
2022/10/16 00:41:12;;;;;;;4.53;2.67;;;;;;;18.02;100.00;99888.59;5073681;28;20089;-66
2022/10/16 00:43:58;;;;;;;3.00;2.25;;;;;;;18.03;100.00;99895.72;5073847;28;20025;-66
2022/10/16 00:46:26;;;;;;;12.70;10.60;;;;;;;18.04;100.00;99894.75;5073450;28;20035;-66
2022/10/16 00:48:58;;;;;;;15.35;14.23;;;;;;;18.03;100.00;99890.34;5073945;28;20503;-71
2022/10/16 00:51:30;;;;;;;7.55;5.78;;;;;;;18.04;100.00;99892.06;5073800;28;20029;-66
2022/10/16 00:53:56;;;;;;;6.60;5.90;;;;;;;18.05;100.00;99890.25;5073740;28;20039;-66
2022/10/16 00:56:22;;;;;;;4.20;3.60;;;;;;;18.05;100.00;99893.81;5073557;28;20024;-66
2022/10/16 00:58:48;;;;;;;7.00;6.30;;;;;;;18.04;100.00;99886.66;5075676;28;20499;-67
2022/10/16 01:01:13;;;;;;;9.13;7.07;;;;;;;18.06;100.00;99895.53;5073653;28;20103;-67
2022/10/16 01:03:39;;;;;;;14.32;13.23;;;;;;;18.08;100.00;99893.59;5078350;28;20490;-66
2022/10/16 01:06:18;;;;;;;8.65;6.30;;;;;;;18.08;100.00;99893.59;5093585;28;20032;-67
2022/10/16 01:09:23;;;;;;;25.23;23.23;;;;;;;18.11;100.00;99898.78;5093822;28;20036;-67
2022/10/16 01:12:12;;;;;;;8.20;7.40;;;;;;;18.12;100.00;99889.72;5093070;28;20495;-68
2022/10/16 01:15:25;;;;;;;7.80;5.90;;;;;;;18.11;100.00;99890.69;5075250;28;20032;-68
2022/10/16 01:18:05;;;;;;;9.65;8.70;;;;;;;18.13;100.00;99895.97;5087712;28;20043;-66
2022/10/16 01:20:37;;;;;;;13.50;12.40;;;;;;;18.12;100.00;99900.50;5075230;28;20013;-67
2022/10/16 01:23:31;;;;;;;10.95;9.95;;;;;;;18.13;100.00;99907.63;5072064;28;20687;-67
2022/10/16 01:26:24;;;;;;;11.45;9.77;;;;;;;18.11;100.00;99901.47;5045467;28;20048;-66
2022/10/16 01:29:01;;;;;;;5.07;1.70;;;;;;;18.13;100.00;99901.38;5052271;28;20068;-67
2022/10/16 01:31:31;;;;;;;24.83;22.58;;;;;;;18.10;100.00;99907.78;5033753;28;20491;-67
2022/10/16 01:34:05;;;;;;;14.65;12.20;;;;;;;18.10;100.00;99902.41;5063087;28;20032;-64
2022/10/16 01:36:39;;;;;;;7.13;4.93;;;;;;;18.07;100.00;99891.00;5072959;28;20029;-65
2022/10/16 01:39:10;;;;;;;2.38;1.27;;;;;;;18.11;100.00;99896.09;5072843;28;20548;-65
2022/10/16 01:41:49;;;;;;;2.28;0.95;;;;;;;18.13;100.00;99886.09;5072696;28;20037;-65
2022/10/16 01:44:21;;;;;;;4.88;1.20;;;;;;;18.15;100.00;99883.28;5072457;28;20016;-66
2022/10/16 01:46:49;;;;;;;3.58;3.17;;;;;;;18.11;100.00;99885.31;5071243;28;20033;-65
2022/10/16 01:49:17;;;;;;;7.32;6.65;;;;;;;18.01;100.00;99876.13;5072616;28;20063;-66
2022/10/16 01:51:47;;;;;;;4.30;3.85;;;;;;;18.06;100.00;99873.97;5072542;28;20024;-67
2022/10/16 01:54:15;;;;;;;4.07;2.17;;;;;;;17.98;100.00;99876.31;5072594;28;20028;-66
2022/10/16 01:56:41;;;;;;;5.32;3.83;;;;;;;18.05;100.00;99893.81;5072343;28;20027;-67
2022/10/16 01:59:12;;;;;;;11.38;8.80;;;;;;;18.03;100.00;99900.22;5072114;28;20467;-66
2022/10/16 02:01:42;;;;;;;19.10;17.35;;;;;;;18.02;100.00;99914.66;5072369;28;20471;-66
2022/10/16 02:04:17;;;;;;;16.48;14.38;;;;;;;18.02;100.00;99909.28;5084482;28;20113;-65
2022/10/16 02:06:43;;;;;;;10.07;7.25;;;;;;;18.03;100.00;99909.19;5092505;28;20048;-65
2022/10/16 02:09:08;;;;;;;9.02;7.60;;;;;;;18.03;100.00;99901.09;5074206;28;20030;-66
2022/10/16 02:11:34;;;;;;;5.35;3.50;;;;;;;18.07;100.00;99909.84;5091697;28;20375;-66
2022/10/16 02:14:05;;;;;;;7.43;3.97;;;;;;;18.05;100.00;99904.56;5092561;28;20113;-66
2022/10/16 02:16:36;;;;;;;8.18;2.60;;;;;;;17.99;100.00;99904.09;5092184;28;20140;-66
2022/10/16 02:19:02;;;;;;;6.95;4.03;;;;;;;17.97;100.00;99898.78;5092306;28;20094;-66
2022/10/16 02:21:44;;;;;;;5.70;3.45;;;;;;;17.94;100.00;99901.69;5092378;28;20157;-65
2022/10/16 02:24:29;;;;;;;9.98;2.75;;;;;;;17.91;100.00;99899.19;5092225;28;20031;-66
2022/10/16 02:27:33;;;;;;;9.02;2.30;;;;;;;17.88;100.00;99902.09;5083122;28;20036;-65
2022/10/16 02:30:07;;;;;;;4.00;1.58;;;;;;;17.86;100.00;99914.78;5074052;28;20100;-66
2022/10/16 02:32:35;;;;;;;5.05;2.80;;;;;;;17.81;100.00;99900.75;5071661;28;20039;-67
2022/10/16 02:35:02;;;;;;;3.90;2.20;;;;;;;17.76;100.00;99897.47;5071571;28;20099;-65
2022/10/16 02:37:28;;;;;;;3.75;2.00;;;;;;;17.76;100.00;99891.25;5071757;28;20078;-65
2022/10/16 02:39:55;;;;;;;6.95;2.30;;;;;;;17.78;100.00;99900.94;5071894;28;20028;-66
2022/10/16 02:42:27;;;;;;;4.45;1.77;;;;;;;17.79;100.00;99908.03;5053558;28;20039;-65
2022/10/16 02:44:52;;;;;;;4.00;1.70;;;;;;;17.60;100.00;99864.44;5071489;28;20028;-65
2022/10/16 02:47:17;;;;;;;2.78;1.40;;;;;;;17.76;100.00;99902.03;5053660;28;20034;-65
2022/10/16 02:49:43;;;;;;;1.60;1.10;;;;;;;17.68;100.00;99894.41;5071744;28;20386;-65
2022/10/16 02:52:08;;;;;;;5.22;1.88;;;;;;;17.75;100.00;99902.97;5071022;28;20039;-65
2022/10/16 02:54:34;;;;;;;5.43;2.00;;;;;;;17.76;100.00;99904.72;5071414;28;20470;-65
2022/10/16 02:56:59;;;;;;;2.28;1.38;;;;;;;17.75;100.00;99893.06;5071442;28;20077;-65
2022/10/16 02:59:24;;;;;;;4.45;1.45;;;;;;;17.78;100.00;99894.69;5071489;28;20082;-65
2022/10/16 03:01:50;;;;;;;7.07;2.00;;;;;;;17.66;100.00;99890.94;5053155;28;20368;-66
2022/10/16 03:04:15;;;;;;;2.58;1.40;;;;;;;17.76;100.00;99908.25;5086913;28;20024;-65
2022/10/16 03:06:41;;;;;;;3.47;1.20;;;;;;;17.78;100.00;99900.06;5091102;28;20063;-65
2022/10/16 03:09:06;;;;;;;3.47;1.70;;;;;;;17.76;100.00;99902.88;5091339;28;20035;-64
2022/10/16 03:11:32;;;;;;;6.55;1.60;;;;;;;17.75;100.00;99898.47;5091136;28;20520;-65
2022/10/16 03:13:57;;;;;;;10.90;1.75;;;;;;;17.74;100.00;99899.41;5091445;28;20391;-65
2022/10/16 03:16:22;;;;;;;5.07;1.80;;;;;;;17.75;100.00;99906.53;5091159;28;20494;-65
2022/10/16 03:18:49;;;;;;;5.90;1.90;;;;;;;17.72;100.00;99909.41;5091468;28;20028;-65
2022/10/16 03:21:17;;;;;;;7.05;1.88;;;;;;;17.68;100.00;99901.63;5091063;28;20035;-65
2022/10/16 03:23:43;;;;;;;5.03;1.77;;;;;;;17.63;100.00;99890.28;5091330;28;20035;-65
2022/10/16 03:26:08;;;;;;;3.65;1.63;;;;;;;17.61;100.00;99903.00;5088094;28;20032;-65
2022/10/16 03:28:33;;;;;;;3.88;1.63;;;;;;;17.59;100.00;99902.22;5071492;28;20485;-66
2022/10/16 03:30:59;;;;;;;2.95;1.67;;;;;;;17.61;100.00;99903.84;5071032;28;20021;-64
2022/10/16 03:33:24;;;;;;;2.53;1.50;;;;;;;17.59;100.00;99902.22;5070999;28;20031;-65
2022/10/16 03:35:54;;;;;;;3.65;1.73;;;;;;;17.56;100.00;99903.25;5070326;28;20074;-65
2022/10/16 03:38:21;;;;;;;5.32;1.40;;;;;;;17.53;100.00;99906.13;5069783;28;20020;-64
2022/10/16 03:40:46;;;;;;;5.15;1.90;;;;;;;17.50;100.00;99900.97;5070369;28;20029;-64
2022/10/16 03:43:11;;;;;;;3.38;1.38;;;;;;;17.49;100.00;99909.13;5070594;28;20034;-65
2022/10/16 03:45:37;;;;;;;3.33;1.73;;;;;;;17.45;100.00;99904.84;5070409;28;20036;-66
2022/10/16 03:48:03;;;;;;;3.53;1.52;;;;;;;17.42;100.00;99905.03;5070073;28;20488;-65
2022/10/16 03:50:29;;;;;;;2.53;1.48;;;;;;;17.35;100.00;99901.88;5070184;28;20036;-65
2022/10/16 03:52:55;;;;;;;19.35;2.70;;;;;;;17.22;100.00;99890.16;5070705;28;20119;-65
2022/10/16 03:55:20;;;;;;;4.80;1.75;;;;;;;17.34;100.00;99910.91;5070870;28;20107;-66
2022/10/16 03:57:45;;;;;;;6.32;1.83;;;;;;;17.34;100.00;99910.91;5070691;28;20028;-65
2022/10/16 04:00:11;;;;;;;4.60;1.60;;;;;;;17.35;100.00;99911.78;5070701;28;20036;-65
2022/10/16 04:02:37;;;;;;;2.00;1.42;;;;;;;17.38;100.00;99917.81;5070614;28;20480;-64
2022/10/16 04:05:03;;;;;;;3.90;1.45;;;;;;;17.37;100.00;99918.78;5090025;28;20133;-65
2022/10/16 04:07:28;;;;;;;9.32;2.53;;;;;;;17.37;100.00;99934.91;5090105;28;20124;-65
2022/10/16 04:09:54;;;;;;;4.07;1.52;;;;;;;17.29;100.00;99923.78;5090520;28;20429;-65
2022/10/16 04:12:19;;;;;;;3.83;1.67;;;;;;;17.36;100.00;99940.41;5090392;28;20450;-66
2022/10/16 04:14:45;;;;;;;2.95;1.58;;;;;;;17.35;100.00;99938.69;5090209;28;20502;-65
2022/10/16 04:17:10;;;;;;;5.35;1.63;;;;;;;17.35;100.00;99941.38;5090165;28;20027;-65
2022/10/16 04:19:35;;;;;;;4.60;1.90;;;;;;;17.30;100.00;99925.50;5090061;28;20020;-65
2022/10/16 04:22:01;;;;;;;4.93;1.65;;;;;;;17.40;100.00;99948.16;5088294;28;20024;-66
2022/10/16 04:24:26;;;;;;;3.25;1.75;;;;;;;17.41;100.00;99949.03;5071142;28;20100;-65
2022/10/16 04:26:52;;;;;;;4.55;1.88;;;;;;;17.46;100.00;99944.28;5070352;28;20468;-65
2022/10/16 04:29:17;;;;;;;7.60;1.77;;;;;;;17.48;100.00;99947.75;5069394;28;20032;-65
2022/10/16 04:31:42;;;;;;;6.97;2.30;;;;;;;17.50;100.00;99949.38;5070651;28;20533;-64
2022/10/16 04:34:08;;;;;;;6.93;2.10;;;;;;;17.51;100.00;99940.31;5071682;28;20031;-66
2022/10/16 04:36:33;;;;;;;7.88;2.13;;;;;;;17.51;100.00;99940.31;5074078;28;20107;-65
2022/10/16 04:38:59;;;;;;;8.27;2.55;;;;;;;17.52;100.00;99942.06;5073783;28;20100;-65
2022/10/16 04:41:24;;;;;;;4.22;2.20;;;;;;;17.47;100.00;99941.50;5074213;28;20093;-64
2022/10/16 04:43:50;;;;;;;11.43;2.40;;;;;;;17.55;100.00;99951.75;5073751;28;20029;-65
2022/10/16 04:46:15;;;;;;;11.00;2.33;;;;;;;17.55;100.00;99960.72;5073897;28;20032;-65
2022/10/16 04:48:40;;;;;;;3.15;1.60;;;;;;;17.55;100.00;99962.53;5073856;28;20020;-65
2022/10/16 04:51:06;;;;;;;13.55;2.33;;;;;;;17.52;100.00;99968.97;5074034;28;20028;-64
2022/10/16 04:53:31;;;;;;;6.07;2.20;;;;;;;17.50;100.00;99965.50;5073826;28;20379;-65
2022/10/16 04:55:57;;;;;;;6.60;2.40;;;;;;;17.50;100.00;99965.50;5073496;28;20048;-64
2022/10/16 04:58:22;;;;;;;4.10;2.10;;;;;;;17.45;100.00;99954.16;5073319;28;20032;-64
2022/10/16 05:00:48;;;;;;;8.05;2.38;;;;;;;17.37;100.00;99953.75;5056142;28;20034;-64
2022/10/16 05:03:13;;;;;;;2.42;1.70;;;;;;;17.48;100.00;99962.03;5075373;28;20021;-64
2022/10/16 05:05:45;;;;;;;4.53;2.10;;;;;;;17.44;100.00;99959.59;5073510;28;20464;-64
2022/10/16 05:08:13;;;;;;;7.18;1.83;;;;;;;17.52;100.00;99971.66;5073470;28;20123;-64
2022/10/16 05:10:40;;;;;;;7.63;2.10;;;;;;;17.53;100.00;99970.69;5073624;28;20060;-64
2022/10/16 05:13:05;;;;;;;4.43;2.13;;;;;;;17.46;100.00;99969.31;5073338;28;20034;-65
2022/10/16 05:15:31;;;;;;;7.13;2.25;;;;;;;17.55;100.00;99974.16;5072824;28;20100;-64
2022/10/16 05:17:56;;;;;;;4.07;2.05;;;;;;;17.55;100.00;99987.59;5073317;28;20539;-66
2022/10/16 05:20:22;;;;;;;5.32;2.65;;;;;;;17.56;100.00;99981.25;5073194;28;20456;-65
2022/10/16 05:22:48;;;;;;;5.78;1.92;;;;;;;17.47;100.00;99954.94;5073202;28;20025;-64
2022/10/16 05:25:13;;;;;;;19.98;3.10;;;;;;;17.56;100.00;99961.59;5073311;28;20095;-65
2022/10/16 05:27:39;;;;;;;5.88;1.70;;;;;;;17.54;100.00;99967.06;5074976;28;20032;-64
2022/10/16 05:30:05;;;;;;;5.82;2.22;;;;;;;17.57;100.00;99971.38;5074252;28;20023;-64
2022/10/16 05:32:30;;;;;;;4.15;1.90;;;;;;;17.58;100.00;99976.66;5072922;28;20054;-64
2022/10/16 05:34:56;;;;;;;7.97;2.33;;;;;;;17.60;100.00;99982.81;5072081;28;20024;-63
2022/10/16 05:37:21;;;;;;;7.57;2.17;;;;;;;17.58;100.00;99994.59;5054714;28;20023;-64
2022/10/16 05:39:47;;;;;;;4.68;2.58;;;;;;;17.60;100.00;99977.44;5072808;28;20378;-63
2022/10/16 05:42:12;;;;;;;4.38;2.25;;;;;;;17.60;100.00;99961.28;5073195;28;20036;-65
2022/10/16 05:44:38;;;;;;;5.90;2.22;;;;;;;17.59;100.00;99977.53;5054579;28;20417;-63
2022/10/16 05:47:03;;;;;;;10.07;2.97;;;;;;;17.60;100.00;99998.94;5072149;28;20024;-64
2022/10/16 05:49:28;;;;;;;7.97;3.22;;;;;;;17.59;100.00;99981.09;5072684;28;20032;-65
2022/10/16 05:51:54;;;;;;;3.42;2.00;;;;;;;17.60;100.00;99981.94;5072629;28;20498;-65
2022/10/16 05:54:19;;;;;;;5.00;2.40;;;;;;;17.58;100.00;99995.47;5072418;28;20484;-65
2022/10/16 05:56:45;;;;;;;8.80;2.90;;;;;;;17.56;100.00;100002.78;5072349;28;20044;-64
2022/10/16 05:59:10;;;;;;;4.85;2.20;;;;;;;17.59;100.00;100001.75;5072593;28;20039;-66
2022/10/16 06:01:36;;;;;;;4.82;1.90;;;;;;;17.60;100.00;100004.31;5072648;28;20033;-64
2022/10/16 06:04:01;;;;;;;5.63;1.92;;;;;;;17.53;100.00;99976.06;5083589;28;20507;-65
2022/10/16 06:06:29;;;;;;;4.93;2.03;;;;;;;17.60;100.00;99993.56;5092732;28;20027;-64
2022/10/16 06:08:55;;;;;;;4.55;1.80;;;;;;;17.59;100.00;99990.97;5090151;28;20028;-64
2022/10/16 06:11:26;;;;;;;5.97;2.10;;;;;;;17.56;100.00;100002.78;5092013;28;20494;-64
2022/10/16 06:13:54;;;;;;;3.38;1.77;;;;;;;17.55;100.00;100000.19;5091939;28;20024;-65
2022/10/16 06:16:19;;;;;;;5.65;2.00;;;;;;;17.56;100.00;100008.16;5092445;28;20360;-65
2022/10/16 06:18:46;;;;;;;5.25;2.20;;;;;;;17.58;100.00;100008.06;5092501;28;20032;-65
2022/10/16 06:21:16;;;;;;;5.57;2.03;;;;;;;17.60;100.00;100007.03;5092405;28;20114;-65
2022/10/16 06:23:41;;;;;;;4.18;2.17;;;;;;;17.59;100.00;99999.91;5092325;28;20491;-63
2022/10/16 06:26:12;;;;;;;5.57;1.90;;;;;;;17.64;100.00;100000.50;5092204;28;20103;-65
2022/10/16 06:28:38;;;;;;;3.58;1.85;;;;;;;17.65;100.00;100007.59;5072148;28;20047;-66
2022/10/16 06:31:06;;;;;;;4.72;2.60;;;;;;;17.66;100.00;100008.47;5071640;28;20035;-65
2022/10/16 06:33:32;;;;;;;4.10;1.48;;;;;;;17.65;100.00;100006.72;5068987;28;20032;-64
2022/10/16 06:36:08;;;;;;;4.22;1.52;;;;;;;17.67;100.00;100015.56;5054039;28;20044;-65
2022/10/16 06:38:35;;;;;;;3.63;1.85;;;;;;;17.65;100.00;100017.50;5051749;28;20361;-65
2022/10/16 06:41:00;;;;;;;3.33;2.00;;;;;;;17.66;100.00;100020.09;5052101;28;20037;-66
2022/10/16 06:43:26;;;;;;;4.07;1.88;;;;;;;17.67;100.00;100027.22;5063747;28;20036;-66
2022/10/16 06:45:56;;;;;;;4.18;1.90;;;;;;;17.70;100.00;100026.16;5057120;28;20090;-65
2022/10/16 06:48:23;;;;;;;4.35;1.80;;;;;;;17.69;100.00;100030.66;5061794;28;20484;-65
2022/10/16 06:50:59;;;;;;;3.70;2.33;;;;;;;17.72;100.00;100022.41;5060202;28;20056;-65
2022/10/16 06:53:26;;;;;;;3.13;1.98;;;;;;;17.79;100.00;100031.81;5051736;28;20021;-63
2022/10/16 06:55:52;;;;;;;4.90;2.08;;;;;;;17.71;100.00;100017.13;5057774;28;20021;-64
2022/10/16 06:58:18;;;;;;;5.03;2.35;;;;;;;17.86;100.00;100038.56;5070867;28;20031;-63
2022/10/16 07:00:43;;;;;;;3.33;1.70;;;;;;;17.94;100.00;100035.41;5065828;28;20021;-63
2022/10/16 07:03:09;;;;;;;4.28;1.90;;;;;;;17.98;100.00;100031.56;5071899;28;20028;-63
2022/10/16 07:05:38;;;;;;;2.85;1.67;;;;;;;17.98;100.00;100043.19;5087272;28;20095;-64
2022/10/16 07:08:05;;;;;;;15.85;8.07;;;;;;;18.03;100.00;100050.97;5058717;28;20055;-64
2022/10/16 07:10:31;;;;;;;38.85;24.63;;;;;;;18.06;100.00;100057.03;5062684;28;20029;-64
2022/10/16 07:12:56;;;;;;;28.10;17.17;;;;;;;18.09;100.00;100051.44;5069077;28;20111;-64
2022/10/16 07:15:22;;;;;;;16.42;7.03;;;;;;;18.16;100.00;100054.63;5071034;28;20031;-64
2022/10/16 07:17:47;;;;;;;20.30;12.68;;;;;;;18.18;100.00;100056.28;5068810;28;20058;-65
2022/10/16 07:20:13;;;;;;;13.98;8.68;;;;;;;18.16;100.00;100065.41;5061497;28;20025;-63
2022/10/16 07:22:39;;;;;;;47.13;22.33;;;;;;;18.16;100.00;100068.97;5050752;28;20040;-64
2022/10/16 07:25:05;;;;;;;229.70;90.22;;;;;;;18.17;100.00;100070.69;5050814;28;20024;-63
2022/10/16 07:27:30;;;;;;;190.07;79.20;;;;;;;18.18;100.00;100076.94;5060756;28;20036;-64
2022/10/16 07:29:55;;;;;;;128.55;56.03;;;;;;;18.17;100.00;100076.06;5065718;28;20465;-64
2022/10/16 07:32:21;;;;;;;70.30;32.83;;;;;;;18.16;100.00;100079.72;5057509;28;20040;-63
2022/10/16 07:34:46;;;;;;;69.50;39.53;;;;;;;18.23;100.00;100093.69;5070731;28;20439;-64
2022/10/16 07:37:12;;;;;;;17.25;8.65;;;;;;;18.29;100.00;100094.16;5070806;28;20024;-64
2022/10/16 07:39:37;;;;;;;9.43;4.07;;;;;;;18.34;100.00;100097.44;5060256;28;20025;-64
2022/10/16 07:42:02;;;;;;;8.63;4.63;;;;;;;18.39;100.00;100102.56;5069234;28;20032;-64
2022/10/16 07:44:28;;;;;;;5.20;2.40;;;;;;;18.41;100.00;100105.13;5063040;28;20039;-63
2022/10/16 07:46:53;;;;;;;2.78;1.83;;;;;;;18.49;100.00;100097.44;5070492;28;20039;-63
2022/10/16 07:49:19;;;;;;;5.43;2.83;;;;;;;18.55;100.00;100102.47;5056077;28;20033;-63
2022/10/16 07:51:44;;;;;;;6.00;2.63;;;;;;;18.58;100.00;100096.88;5033694;28;20103;-63
2022/10/16 07:54:10;;;;;;;7.95;2.95;;;;;;;18.63;100.00;100101.00;5051700;28;20373;-64
2022/10/16 07:56:35;;;;;;;8.82;3.35;;;;;;;18.66;100.00;100099.94;5056630;28;20123;-63
2022/10/16 07:59:00;;;;;;;5.45;2.40;;;;;;;18.72;100.00;100100.41;5054714;28;20029;-63
2022/10/16 08:01:26;;;;;;;6.45;2.65;;;;;;;18.80;100.00;100107.97;5053857;28;20471;-63
2022/10/16 08:03:52;;;;;;;6.68;2.78;;;;;;;18.85;100.00;100100.47;5061476;28;20533;-64
2022/10/16 08:06:19;;;;;;;3.97;2.03;;;;;;;18.86;100.00;100102.22;5052662;28;20869;-63
2022/10/16 08:08:45;;;;;;;3.33;1.90;;;;;;;18.95;100.00;100091.69;5055300;28;20049;-63
2022/10/16 08:11:10;;;;;;;4.88;2.30;;;;;;;19.07;100.00;100101.69;5058325;28;20357;-64
2022/10/16 08:13:36;;;;;;;4.95;2.05;;;;;;;19.21;100.00;100108.84;5057491;28;20029;-63
2022/10/16 08:16:07;;;;;;;3.63;1.88;;;;;;;19.73;100.00;100100.84;5060284;28;20035;-64
2022/10/16 08:18:34;;;;;;;4.28;1.80;;;;;;;20.43;100.00;100103.91;5059041;28;20074;-63
2022/10/16 08:21:00;;;;;;;6.22;2.40;;;;;;;22.00;97.81;100101.06;5056291;28;20024;-64
2022/10/16 08:23:27;;;;;;;3.85;1.80;;;;;;;23.31;84.97;100101.19;5055498;28;20037;-64
2022/10/16 08:25:56;;;;;;;4.32;1.60;;;;;;;23.24;78.87;100110.78;5061701;28;20048;-63
2022/10/16 08:28:22;;;;;;;3.13;1.50;;;;;;;22.82;79.46;100119.75;5058901;28;20033;-64
2022/10/16 08:30:48;;;;;;;4.72;1.40;;;;;;;22.34;80.72;100117.38;5062121;28;20035;-64
2022/10/16 08:33:14;;;;;;;2.20;1.38;;;;;;;21.72;83.04;100109.56;5060598;28;20037;-64
2022/10/16 08:35:39;;;;;;;1.73;1.05;;;;;;;21.61;86.05;100123.06;5057226;28;20519;-64
2022/10/16 08:38:06;;;;;;;2.92;1.00;;;;;;;22.07;85.73;100120.41;5057969;28;20029;-63
2022/10/16 08:40:34;;;;;;;2.63;1.50;;;;;;;22.31;83.41;100121.19;5055390;28;20024;-64
2022/10/16 08:43:02;;;;;;;2.85;1.10;;;;;;;22.39;81.68;100126.00;5062461;28;20028;-64
2022/10/16 08:45:42;;;;;;;3.25;1.20;;;;;;;22.24;82.74;100133.47;5063488;28;20028;-63
2022/10/16 08:48:23;;;;;;;3.03;1.20;;;;;;;21.90;83.64;100137.09;5065615;28;20169;-63
2022/10/16 08:50:50;;;;;;;2.95;1.00;;;;;;;21.54;85.86;100138.03;5058698;28;20146;-63
2022/10/16 08:53:24;;;;;;;7.97;1.50;;;;;;;21.34;87.39;100145.91;5056379;28;20093;-63
2022/10/16 08:55:51;;;;;;;3.60;1.85;;;;;;;21.15;88.65;100150.97;5061999;28;20025;-63
2022/10/16 08:58:20;;;;;;;3.85;1.40;;;;;;;21.12;89.58;100154.75;5055035;28;20055;-64
2022/10/16 09:00:49;;;;;;;3.20;1.20;;;;;;;21.23;90.99;100165.66;5058296;28;20041;-63
2022/10/16 09:03:40;;;;;;;3.08;1.30;;;;;;;21.12;89.78;100162.03;5057347;28;20112;-63
2022/10/16 09:06:25;;;;;;;4.28;2.30;;;;;;;21.20;90.36;100159.63;5054399;28;20020;-63
2022/10/16 09:09:20;;;;;;;2.15;1.40;;;;;;;21.37;91.04;100172.72;5057644;28;20041;-63
2022/10/16 09:12:08;;;;;;;5.45;1.60;;;;;;;21.30;89.72;100171.50;5057118;28;20029;-63
2022/10/16 09:14:58;;;;;;;2.55;1.25;;;;;;;21.36;89.90;100181.84;5053065;28;20075;-63
2022/10/16 09:17:37;;;;;;;10.18;1.30;;;;;;;21.37;90.06;100179.03;5054993;28;20032;-64
2022/10/16 09:20:14;;;;;;;3.25;1.35;;;;;;;21.42;90.26;100176.84;5054397;28;20017;-63
2022/10/16 09:22:40;;;;;;;2.55;1.08;;;;;;;21.47;90.20;100180.06;5055070;28;20028;-64
2022/10/16 09:25:17;;;;;;;14.52;4.10;;;;;;;21.50;90.76;100179.84;5053892;28;20767;-62
2022/10/16 09:27:46;;;;;;;3.55;1.08;;;;;;;21.46;90.40;100188.31;5050963;28;20033;-63
2022/10/16 09:30:14;;;;;;;5.60;1.00;;;;;;;21.36;90.10;100189.97;5059117;28;20028;-63
2022/10/16 09:32:41;;;;;;;3.85;1.17;;;;;;;21.38;90.04;100190.72;5057779;28;20036;-63
2022/10/16 09:35:13;;;;;;;3.22;1.13;;;;;;;21.42;90.50;100198.50;5060358;28;20044;-63
2022/10/16 09:37:40;;;;;;;4.15;1.13;;;;;;;21.41;90.70;100195.91;5058314;28;20491;-63
2022/10/16 09:40:06;;;;;;;3.50;1.20;;;;;;;21.48;91.53;100192.63;5054203;28;20037;-63
2022/10/16 09:42:36;;;;;;;2.40;1.27;;;;;;;21.58;92.30;100187.41;5060146;28;20020;-64
2022/10/16 09:45:03;;;;;;;3.00;1.23;;;;;;;21.56;91.13;100195.63;5053205;28;20152;-63
2022/10/16 09:47:30;;;;;;;4.05;1.70;;;;;;;21.60;89.96;100207.06;5051453;28;20064;-64
2022/10/16 09:50:02;;;;;;;3.33;1.50;;;;;;;22.06;89.67;100208.06;5055211;28;20140;-63
2022/10/16 09:52:33;;;;;;;3.13;1.40;;;;;;;22.40;88.64;100204.50;5055821;28;21012;-63
2022/10/16 09:55:23;;;;;;;2.72;1.02;;;;;;;22.63;85.80;100209.03;5051295;28;20027;-63
2022/10/16 09:57:53;;;;;;;4.70;1.80;;;;;;;22.93;82.14;100209.25;5053563;28;20048;-64
2022/10/16 10:00:19;;;;;;;5.65;1.58;;;;;;;23.02;82.04;100208.53;5052316;28;20033;-64
2022/10/16 10:02:45;;;;;;;5.15;1.30;;;;;;;23.23;81.38;100212.22;5051874;28;20056;-63
2022/10/16 10:05:22;;;;;;;1.88;0.98;;;;;;;23.70;80.02;100207.47;5043825;28;20403;-63
2022/10/16 10:07:56;;;;;;;2.30;1.40;;;;;;;23.95;77.94;100215.31;5045559;28;158595;-63
2022/10/16 10:10:27;;;;;;;5.03;1.38;;;;;;;24.17;76.15;100234.25;5038221;28;20047;-63
2022/10/16 10:12:55;;;;;;;2.22;1.40;;;;;;;24.62;74.77;100227.59;5053285;28;20243;-64
2022/10/16 10:15:23;;;;;;;2.03;1.00;;;;;;;24.60;72.09;100218.69;5051308;28;20033;-64
2022/10/16 10:17:51;;;;;;;2.63;1.38;;;;;;;24.59;72.00;100236.03;5056009;28;20116;-63
2022/10/16 10:20:28;;;;;;;8.70;2.25;;;;;;;24.39;71.92;100236.88;5054307;28;20047;-63
2022/10/16 10:22:55;;;;;;;1.80;1.10;;;;;;;24.25;71.82;100234.50;5056004;28;20036;-63
2022/10/16 10:25:47;;;;;;;4.95;1.48;;;;;;;24.10;73.44;100236.63;5059055;28;20052;-63
2022/10/16 10:28:13;;;;;;;4.15;1.10;;;;;;;24.17;74.29;100236.97;5052644;28;20365;-64
2022/10/16 10:30:50;;;;;;;4.10;1.38;;;;;;;24.48;75.03;100236.09;5053178;28;20032;-64
2022/10/16 10:33:49;;;;;;;4.43;0.90;;;;;;;24.83;72.97;100243.94;5053247;28;20033;-64
2022/10/16 10:36:33;;;;;;;2.78;1.20;;;;;;;24.79;71.62;100246.06;5052499;28;20500;-63
2022/10/16 10:38:59;;;;;;;2.78;1.15;;;;;;;24.64;71.22;100234.59;5056328;28;20529;-63
2022/10/16 10:41:46;;;;;;;3.28;1.30;;;;;;;24.42;72.35;100233.88;5053882;28;20420;-63
2022/10/16 10:44:46;;;;;;;2.33;1.30;;;;;;;24.33;73.30;100223.81;5058178;28;20024;-63
2022/10/16 10:47:35;;;;;;;5.63;1.27;;;;;;;24.26;71.44;100225.31;5057269;28;20037;-63
2022/10/16 10:50:20;;;;;;;1.23;0.82;;;;;;;24.30;72.31;100216.75;5053562;28;20041;-63
2022/10/16 10:53:07;;;;;;;3.92;1.48;;;;;;;24.17;71.97;100223.38;5052741;28;20025;-63
2022/10/16 10:55:54;;;;;;;3.20;1.42;;;;;;;24.45;73.11;100225.47;5055059;28;20033;-64
2022/10/16 10:58:42;;;;;;;3.75;1.13;;;;;;;24.62;72.55;100227.59;5053871;28;20383;-63
2022/10/16 11:01:30;;;;;;;3.13;1.00;;;;;;;24.62;69.71;100222.16;5056145;28;20024;-63
2022/10/16 11:04:30;;;;;;;5.35;1.25;;;;;;;24.85;71.37;100229.19;5052173;28;20033;-64
2022/10/16 11:07:01;;;;;;;2.65;1.23;;;;;;;24.92;72.06;100229.50;5055451;28;20079;-64
2022/10/16 11:09:41;;;;;;;3.63;1.10;;;;;;;24.80;70.95;100223.28;5051486;28;20040;-63
2022/10/16 11:12:21;;;;;;;1.98;1.15;;;;;;;24.63;68.86;100213.84;5055563;28;20035;-63
2022/10/16 11:14:56;;;;;;;6.63;1.50;;;;;;;24.33;69.59;100215.66;5051443;28;20113;-63
2022/10/16 11:17:38;;;;;;;3.20;1.33;;;;;;;24.27;70.79;100214.31;5051434;28;20052;-63
2022/10/16 11:20:14;;;;;;;3.42;1.20;;;;;;;24.24;73.00;100213.72;5053981;28;20455;-63
2022/10/16 11:22:48;;;;;;;2.40;1.10;;;;;;;24.18;74.03;100208.81;5052334;28;20029;-64
2022/10/16 11:25:26;;;;;;;4.93;1.45;;;;;;;24.12;74.78;100212.03;5059371;28;20028;-64
2022/10/16 11:28:01;;;;;;;3.78;1.17;;;;;;;24.09;74.60;100212.28;5051058;28;20021;-63
2022/10/16 11:30:38;;;;;;;2.10;1.33;;;;;;;24.11;76.61;100207.59;5053553;28;20738;-64
2022/10/16 11:33:10;;;;;;;3.30;1.40;;;;;;;24.14;76.98;100210.06;5052737;28;20035;-64
2022/10/16 11:35:49;;;;;;;3.63;1.48;;;;;;;24.12;76.20;100212.91;5055047;28;20654;-64